createdAt,value
2023-05-23T00:00:37.852Z,23.10
2023-05-23T00:01:40.369Z,23.10
2023-05-23T00:02:42.986Z,23.10
2023-05-23T00:03:47.358Z,23.10
2023-05-23T00:04:50.015Z,23.10
2023-05-23T00:05:53.113Z,23.10
2023-05-23T00:06:56.502Z,23.10
2023-05-23T00:07:59.065Z,23.10
2023-05-23T00:09:02.046Z,23.10
2023-05-23T00:10:05.321Z,23.10
2023-05-23T00:11:07.851Z,23.10
2023-05-23T00:12:10.706Z,23.10
2023-05-23T00:13:13.131Z,23.10
2023-05-23T00:14:15.961Z,23.00
2023-05-23T00:15:18.566Z,23.00
2023-05-23T00:16:22.948Z,23.00
2023-05-23T00:17:26.361Z,23.00
2023-05-23T00:18:28.865Z,23.00
2023-05-23T00:19:31.744Z,22.90
2023-05-23T00:20:35.483Z,22.90
2023-05-23T00:21:38.893Z,22.90
2023-05-23T00:22:48.181Z,22.90
2023-05-23T00:23:50.781Z,22.80
2023-05-23T00:24:53.203Z,22.80
2023-05-23T00:25:56.029Z,22.80
2023-05-23T00:26:58.993Z,22.80
2023-05-23T00:28:01.774Z,22.80
2023-05-23T00:29:04.869Z,22.70
2023-05-23T00:30:08.316Z,22.70
2023-05-23T00:31:10.862Z,22.70
2023-05-23T00:32:13.644Z,22.70
2023-05-23T00:33:17.247Z,22.70
2023-05-23T00:34:19.802Z,22.60
2023-05-23T00:35:23.687Z,22.70
2023-05-23T00:36:27.093Z,22.70
2023-05-23T00:37:29.849Z,22.70
2023-05-23T00:38:32.300Z,22.70
2023-05-23T00:39:34.801Z,22.70
2023-05-23T00:40:37.316Z,22.70
2023-05-23T00:41:40.017Z,22.60
2023-05-23T00:42:42.783Z,22.70
2023-05-23T00:43:45.446Z,22.70
2023-05-23T00:44:48.436Z,22.60
2023-05-23T00:45:50.908Z,22.60
2023-05-23T00:46:56.566Z,22.70
2023-05-23T00:48:00.287Z,22.60
2023-05-23T00:49:03.408Z,22.70
2023-05-23T00:50:16.475Z,22.70
2023-05-23T00:51:20.874Z,22.70
2023-05-23T00:52:23.964Z,22.70
2023-05-23T00:53:27.110Z,22.60
2023-05-23T00:54:33.570Z,22.60
2023-05-23T00:55:37.199Z,22.60
2023-05-23T00:56:39.970Z,22.60
2023-05-23T00:57:44.461Z,22.60
2023-05-23T00:58:48.232Z,22.60
2023-05-23T00:59:51.345Z,22.70
2023-05-23T01:00:54.981Z,22.60
2023-05-23T01:01:58.900Z,22.70
2023-05-23T01:03:02.007Z,22.70
2023-05-23T01:04:04.990Z,22.70
2023-05-23T01:05:08.252Z,22.70
2023-05-23T01:06:10.826Z,22.70
2023-05-23T01:07:13.770Z,22.60
2023-05-23T01:08:17.077Z,22.70
2023-05-23T01:09:21.004Z,22.70
2023-05-23T01:10:29.567Z,22.70
2023-05-23T01:11:58.999Z,22.60
2023-05-23T01:13:15.420Z,22.60
2023-05-23T01:14:23.986Z,22.60
2023-05-23T01:16:10.691Z,22.60
2023-05-23T01:17:20.426Z,22.60
2023-05-23T01:18:49.008Z,22.60
2023-05-23T01:20:10.212Z,22.60
2023-05-23T01:21:18.159Z,22.60
2023-05-23T01:22:26.627Z,22.60
2023-05-23T01:23:32.544Z,22.60
2023-05-23T01:24:44.103Z,22.60
2023-05-23T01:26:05.548Z,22.60
2023-05-23T01:27:11.988Z,22.60
2023-05-23T01:28:20.024Z,22.60
2023-05-23T01:29:34.298Z,22.60
2023-05-23T01:30:40.655Z,22.50
2023-05-23T01:31:46.188Z,22.50
2023-05-23T01:32:53.522Z,22.50
2023-05-23T01:33:57.652Z,22.50
2023-05-23T01:35:01.062Z,22.50
2023-05-23T01:36:04.132Z,22.50
2023-05-23T01:37:14.747Z,22.50
2023-05-23T01:38:17.518Z,22.50
2023-05-23T01:39:20.455Z,22.50
2023-05-23T01:40:25.079Z,22.50
2023-05-23T01:41:28.456Z,22.50
2023-05-23T01:42:31.148Z,22.50
2023-05-23T01:43:33.895Z,22.40
2023-05-23T01:44:37.215Z,22.40
2023-05-23T01:45:40.074Z,22.40
2023-05-23T01:46:44.455Z,22.40
2023-05-23T01:47:50.772Z,22.40
2023-05-23T01:48:55.478Z,22.30
2023-05-23T01:49:59.457Z,22.30
2023-05-23T01:51:02.682Z,22.40
2023-05-23T01:52:06.479Z,22.40
2023-05-23T01:53:09.937Z,22.40
2023-05-23T01:54:17.186Z,22.40
2023-05-23T01:55:24.789Z,22.50
2023-05-23T01:56:29.413Z,22.50
2023-05-23T01:57:33.218Z,22.50
2023-05-23T01:58:35.775Z,22.50
2023-05-23T01:59:38.968Z,22.50
2023-05-23T02:00:42.641Z,22.40
2023-05-23T02:01:45.364Z,22.50
2023-05-23T02:02:49.072Z,22.50
2023-05-23T02:03:53.168Z,22.50
2023-05-23T02:04:58.215Z,22.50
2023-05-23T02:06:00.982Z,22.50
2023-05-23T02:07:03.454Z,22.50
2023-05-23T02:08:05.861Z,22.50
2023-05-23T02:09:08.759Z,22.50
2023-05-23T02:10:11.212Z,22.50
2023-05-23T02:11:13.998Z,22.50
2023-05-23T02:12:16.378Z,22.50
2023-05-23T02:13:18.896Z,22.50
2023-05-23T02:14:21.697Z,22.50
2023-05-23T02:15:24.531Z,22.50
2023-05-23T02:16:27.197Z,22.50
2023-05-23T02:17:33.473Z,22.50
2023-05-23T02:18:38.238Z,22.50
2023-05-23T02:19:41.315Z,22.50
2023-05-23T02:20:44.726Z,22.50
2023-05-23T02:21:47.187Z,22.50
2023-05-23T02:22:49.882Z,22.50
2023-05-23T02:23:52.377Z,22.50
2023-05-23T02:24:54.851Z,22.50
2023-05-23T02:25:57.362Z,22.50
2023-05-23T02:26:59.929Z,22.50
2023-05-23T02:28:02.718Z,22.40
2023-05-23T02:29:05.194Z,22.50
2023-05-23T02:30:08.245Z,22.50
2023-05-23T02:31:11.427Z,22.50
2023-05-23T02:32:14.091Z,22.50
2023-05-23T02:33:16.736Z,22.50
2023-05-23T02:34:19.265Z,22.50
2023-05-23T02:35:22.383Z,22.50
2023-05-23T02:36:25.310Z,22.50
2023-05-23T02:37:27.657Z,22.50
2023-05-23T02:38:31.001Z,22.40
2023-05-23T02:39:38.173Z,22.50
2023-05-23T02:40:40.665Z,22.50
2023-05-23T02:41:43.340Z,22.50
2023-05-23T02:42:45.993Z,22.50
2023-05-23T02:43:48.572Z,22.50
2023-05-23T02:44:52.337Z,22.40
2023-05-23T02:45:54.789Z,22.40
2023-05-23T02:46:57.674Z,22.50
2023-05-23T02:48:00.365Z,22.40
2023-05-23T02:49:03.965Z,22.40
2023-05-23T02:50:07.333Z,22.40
2023-05-23T02:51:09.757Z,22.40
2023-05-23T02:52:12.184Z,22.40
2023-05-23T02:53:14.647Z,22.40
2023-05-23T02:54:17.367Z,22.40
2023-05-23T02:55:20.444Z,22.40
2023-05-23T02:56:26.960Z,22.30
2023-05-23T02:57:29.518Z,22.40
2023-05-23T02:58:32.183Z,22.40
2023-05-23T02:59:34.745Z,22.40
2023-05-23T03:00:37.949Z,22.40
2023-05-23T03:01:40.558Z,22.40
2023-05-23T03:02:43.341Z,22.40
2023-05-23T03:03:46.336Z,22.40
2023-05-23T03:04:49.580Z,22.50
2023-05-23T03:05:52.059Z,22.50
2023-05-23T03:06:55.104Z,22.50
2023-05-23T03:07:57.743Z,22.50
2023-05-23T03:09:01.428Z,22.50
2023-05-23T03:10:04.112Z,22.50
2023-05-23T03:11:06.557Z,22.50
2023-05-23T03:12:09.043Z,22.50
2023-05-23T03:13:11.641Z,22.50
2023-05-23T03:14:14.937Z,22.50
2023-05-23T03:15:17.601Z,22.50
2023-05-23T03:16:21.899Z,22.50
2023-05-23T03:17:26.125Z,22.50
2023-05-23T03:18:29.757Z,22.50
2023-05-23T03:19:34.237Z,22.50
2023-05-23T03:20:38.881Z,22.50
2023-05-23T03:21:41.848Z,22.50
2023-05-23T03:22:45.530Z,22.50
2023-05-23T03:23:48.554Z,22.50
2023-05-23T03:24:50.990Z,22.50
2023-05-23T03:25:53.377Z,22.50
2023-05-23T03:26:56.686Z,22.50
2023-05-23T03:27:59.913Z,22.50
2023-05-23T03:29:02.366Z,22.50
2023-05-23T03:30:06.248Z,22.50
2023-05-23T03:31:08.695Z,22.50
2023-05-23T03:32:11.290Z,22.50
2023-05-23T03:33:13.881Z,22.50
2023-05-23T03:34:16.676Z,22.50
2023-05-23T03:35:19.163Z,22.50
2023-05-23T03:36:25.922Z,22.40
2023-05-23T03:37:28.469Z,22.40
2023-05-23T03:38:30.867Z,22.40
2023-05-23T03:39:33.246Z,22.30
2023-05-23T03:40:35.739Z,22.40
2023-05-23T03:41:38.095Z,22.30
2023-05-23T03:42:41.044Z,22.30
2023-05-23T03:43:45.285Z,22.30
2023-05-23T03:44:48.484Z,22.30
2023-05-23T03:45:51.400Z,22.20
2023-05-23T03:46:54.018Z,22.20
2023-05-23T03:47:56.461Z,22.20
2023-05-23T03:48:59.093Z,22.20
2023-05-23T03:50:01.569Z,22.10
2023-05-23T03:51:04.293Z,22.10
2023-05-23T03:52:07.188Z,22.10
2023-05-23T03:53:11.408Z,22.10
2023-05-23T03:54:13.798Z,22.20
2023-05-23T03:55:16.426Z,22.20
2023-05-23T03:56:19.756Z,22.10
2023-05-23T03:57:22.766Z,22.10
2023-05-23T03:58:27.719Z,22.10
2023-05-23T03:59:35.687Z,22.10
2023-05-23T04:00:40.850Z,22.00
2023-05-23T04:01:44.172Z,22.00
2023-05-23T04:02:47.083Z,22.00
2023-05-23T04:03:53.692Z,22.00
2023-05-23T04:04:57.283Z,22.00
2023-05-23T04:06:01.462Z,22.00
2023-05-23T04:07:05.690Z,22.00
2023-05-23T04:08:08.328Z,22.00
2023-05-23T04:09:10.872Z,22.00
2023-05-23T04:10:16.339Z,22.00
2023-05-23T04:11:19.720Z,22.10
2023-05-23T04:12:22.719Z,22.20
2023-05-23T04:13:26.356Z,22.20
2023-05-23T04:14:29.326Z,22.20
2023-05-23T04:15:34.263Z,22.30
2023-05-23T04:16:44.764Z,22.30
2023-05-23T04:17:48.917Z,22.30
2023-05-23T04:18:51.911Z,22.30
2023-05-23T04:19:54.512Z,22.30
2023-05-23T04:21:00.043Z,22.30
2023-05-23T04:22:03.187Z,22.30
2023-05-23T04:23:05.773Z,22.30
2023-05-23T04:24:11.487Z,22.40
2023-05-23T04:25:14.357Z,22.40
2023-05-23T04:26:23.767Z,22.40
2023-05-23T04:27:28.507Z,22.40
2023-05-23T04:28:31.490Z,22.40
2023-05-23T04:29:36.002Z,22.40
2023-05-23T04:30:38.525Z,22.40
2023-05-23T04:31:45.838Z,22.50
2023-05-23T04:32:48.784Z,22.50
2023-05-23T04:33:51.790Z,22.50
2023-05-23T04:34:56.852Z,22.50
2023-05-23T04:36:00.724Z,22.50
2023-05-23T04:37:03.330Z,22.50
2023-05-23T04:38:07.102Z,22.50
2023-05-23T04:39:10.392Z,22.50
2023-05-23T04:40:18.203Z,22.40
2023-05-23T04:41:40.119Z,22.40
2023-05-23T04:43:03.973Z,22.40
2023-05-23T04:44:20.792Z,22.40
2023-05-23T04:45:50.244Z,22.30
2023-05-23T04:47:03.508Z,22.30
2023-05-23T04:48:31.405Z,22.30
2023-05-23T04:49:34.301Z,22.30
2023-05-23T04:50:38.011Z,22.30
2023-05-23T04:51:40.490Z,22.20
2023-05-23T04:52:52.579Z,22.30
2023-05-23T04:53:57.632Z,22.30
2023-05-23T04:55:02.171Z,22.30
2023-05-23T04:56:05.041Z,22.30
2023-05-23T04:57:08.430Z,22.30
2023-05-23T04:58:10.883Z,22.40
2023-05-23T04:59:13.393Z,22.30
2023-05-23T05:00:16.926Z,22.30
2023-05-23T05:01:23.669Z,22.30
2023-05-23T05:02:27.759Z,22.30
2023-05-23T05:03:30.775Z,22.30
2023-05-23T05:04:33.512Z,22.20
2023-05-23T05:05:37.339Z,22.20
2023-05-23T05:06:41.329Z,22.30
2023-05-23T05:07:44.963Z,22.30
2023-05-23T05:08:48.062Z,22.20
2023-05-23T05:09:50.529Z,22.20
2023-05-23T05:10:55.366Z,22.20
2023-05-23T05:12:00.125Z,22.20
2023-05-23T05:13:03.360Z,22.10
2023-05-23T05:14:13.801Z,22.10
2023-05-23T05:15:20.223Z,22.20
2023-05-23T05:16:27.105Z,22.10
2023-05-23T05:17:30.116Z,22.10
2023-05-23T05:18:39.504Z,22.10
2023-05-23T05:19:42.290Z,22.20
2023-05-23T05:20:44.796Z,22.10
2023-05-23T05:21:47.472Z,22.20
2023-05-23T05:22:56.369Z,22.20
2023-05-23T05:24:00.056Z,22.20
2023-05-23T05:25:03.817Z,22.20
2023-05-23T05:26:06.600Z,22.10
2023-05-23T05:27:09.575Z,22.10
2023-05-23T05:28:12.039Z,22.00
2023-05-23T05:29:20.848Z,22.00
2023-05-23T05:30:23.506Z,22.10
2023-05-23T05:31:30.345Z,22.10
2023-05-23T05:32:36.241Z,22.10
2023-05-23T05:33:39.778Z,22.10
2023-05-23T05:34:48.527Z,22.10
2023-05-23T05:35:55.671Z,22.10
2023-05-23T05:36:58.269Z,22.10
2023-05-23T05:38:02.803Z,22.10
2023-05-23T05:39:06.771Z,22.10
2023-05-23T05:40:10.162Z,22.10
2023-05-23T05:41:17.295Z,22.10
2023-05-23T05:42:24.318Z,22.10
2023-05-23T05:43:26.768Z,22.10
2023-05-23T05:44:29.439Z,22.20
2023-05-23T05:45:31.901Z,22.20
2023-05-23T05:46:34.634Z,22.10
2023-05-23T05:47:38.800Z,22.10
2023-05-23T05:48:42.291Z,22.20
2023-05-23T05:49:47.942Z,22.10
2023-05-23T05:50:51.406Z,22.20
2023-05-23T05:51:53.910Z,22.20
2023-05-23T05:52:56.339Z,22.30
2023-05-23T05:53:58.793Z,22.30
2023-05-23T05:55:01.293Z,22.30
2023-05-23T05:56:03.930Z,22.30
2023-05-23T05:57:08.110Z,22.30
2023-05-23T05:58:11.324Z,22.30
2023-05-23T05:59:30.532Z,22.30
2023-05-23T06:00:42.299Z,22.30
2023-05-23T06:01:45.208Z,22.30
2023-05-23T06:02:51.392Z,22.30
2023-05-23T06:04:05.658Z,22.30
2023-05-23T06:05:12.291Z,22.30
2023-05-23T06:06:15.315Z,22.30
2023-05-23T06:07:18.118Z,22.30
2023-05-23T06:08:22.434Z,22.30
2023-05-23T06:09:25.237Z,22.30
2023-05-23T06:10:27.678Z,22.30
2023-05-23T06:11:30.133Z,22.30
2023-05-23T06:12:34.254Z,22.30
2023-05-23T06:13:36.764Z,22.30
2023-05-23T06:14:39.766Z,22.30
2023-05-23T06:15:42.526Z,22.30
2023-05-23T06:16:45.017Z,22.30
2023-05-23T06:17:48.683Z,22.30
2023-05-23T06:18:51.299Z,22.30
2023-05-23T06:19:53.836Z,22.30
2023-05-23T06:20:57.376Z,22.30
2023-05-23T06:21:59.902Z,22.30
2023-05-23T06:23:05.490Z,22.30
2023-05-23T06:24:08.003Z,22.30
2023-05-23T06:25:10.773Z,22.30
2023-05-23T06:26:13.269Z,22.30
2023-05-23T06:27:15.796Z,22.30
2023-05-23T06:28:18.210Z,22.30
2023-05-23T06:29:21.854Z,22.30
2023-05-23T06:30:24.338Z,22.30
2023-05-23T06:31:27.866Z,22.30
2023-05-23T06:32:30.493Z,22.30
2023-05-23T06:33:34.009Z,22.20
2023-05-23T06:34:36.408Z,22.20
2023-05-23T06:35:38.829Z,22.20
2023-05-23T06:36:42.889Z,22.30
2023-05-23T06:37:46.383Z,22.30
2023-05-23T06:38:49.191Z,22.20
2023-05-23T06:39:51.696Z,22.30
2023-05-23T06:40:54.367Z,22.30
2023-05-23T06:41:57.334Z,22.30
2023-05-23T06:42:59.807Z,22.30
2023-05-23T06:44:15.837Z,22.30
2023-05-23T06:45:18.394Z,22.30
2023-05-23T06:46:21.388Z,22.30
2023-05-23T06:47:23.912Z,22.30
2023-05-23T06:48:26.503Z,22.30
2023-05-23T06:49:28.962Z,22.30
2023-05-23T06:50:31.758Z,22.30
2023-05-23T06:51:34.359Z,22.30
2023-05-23T06:52:36.980Z,22.30
2023-05-23T06:53:39.516Z,22.30
2023-05-23T06:54:42.453Z,22.30
2023-05-23T06:55:44.869Z,22.30
2023-05-23T06:56:50.086Z,22.40
2023-05-23T06:57:52.721Z,22.30
2023-05-23T06:58:56.977Z,22.30
2023-05-23T06:59:59.437Z,22.30
2023-05-23T07:01:02.173Z,22.30
2023-05-23T07:02:08.303Z,22.30
2023-05-23T07:03:11.412Z,22.40
2023-05-23T07:04:14.754Z,22.40
2023-05-23T07:05:18.124Z,22.40
2023-05-23T07:06:23.590Z,22.30
2023-05-23T07:07:26.889Z,22.30
2023-05-23T07:08:29.537Z,22.30
2023-05-23T07:09:35.202Z,22.30
2023-05-23T07:10:45.424Z,22.30
2023-05-23T07:12:17.333Z,22.20
2023-05-23T07:13:22.848Z,22.20
2023-05-23T07:14:26.495Z,22.20
2023-05-23T07:15:28.997Z,22.10
2023-05-23T07:16:44.245Z,22.10
2023-05-23T07:17:47.393Z,22.10
2023-05-23T07:18:51.820Z,22.10
2023-05-23T07:19:54.390Z,22.10
2023-05-23T07:20:57.316Z,22.10
2023-05-23T07:21:59.873Z,22.10
2023-05-23T07:23:02.968Z,22.10
2023-05-23T07:27:06.523Z,22.00
2023-05-23T07:28:10.624Z,22.10
2023-05-23T07:29:13.498Z,22.10
2023-05-23T07:30:16.779Z,22.10
2023-05-23T07:31:19.694Z,22.10
2023-05-23T07:32:22.491Z,22.10
2023-05-23T07:33:24.948Z,22.00
2023-05-23T07:34:30.607Z,21.90
2023-05-23T07:35:36.058Z,22.00
2023-05-23T07:36:40.770Z,22.00
2023-05-23T07:37:46.740Z,22.10
2023-05-23T07:38:53.181Z,22.00
2023-05-23T07:39:55.596Z,22.00
2023-05-23T07:41:07.306Z,22.00
2023-05-23T07:42:14.335Z,22.00
2023-05-23T07:43:16.972Z,22.00
2023-05-23T07:44:21.163Z,21.90
2023-05-23T07:45:25.922Z,21.90
2023-05-23T07:46:28.387Z,21.90
2023-05-23T07:47:30.917Z,21.90
2023-05-23T07:48:33.632Z,21.90
2023-05-23T07:49:36.282Z,22.00
2023-05-23T07:50:40.945Z,22.00
2023-05-23T07:51:44.458Z,22.00
2023-05-23T07:52:46.985Z,22.00
2023-05-23T07:53:52.260Z,22.10
2023-05-23T07:54:56.936Z,22.00
2023-05-23T07:56:00.169Z,22.00
2023-05-23T07:57:07.560Z,22.00
2023-05-23T07:58:10.297Z,22.00
2023-05-23T07:59:13.415Z,22.10
2023-05-23T08:00:17.832Z,22.10
2023-05-23T08:01:20.429Z,22.10
2023-05-23T08:02:29.118Z,22.10
2023-05-23T08:03:32.183Z,22.10
2023-05-23T08:04:41.969Z,22.10
2023-05-23T08:05:45.379Z,22.10
2023-05-23T08:07:00.796Z,22.20
2023-05-23T08:08:21.751Z,22.20
2023-05-23T08:09:24.459Z,22.20
2023-05-23T08:10:30.624Z,22.30
2023-05-23T08:11:40.084Z,22.30
2023-05-23T08:12:43.224Z,22.30
2023-05-23T08:13:50.575Z,22.30
2023-05-23T08:15:17.986Z,22.30
2023-05-23T08:16:27.993Z,22.30
2023-05-23T08:17:30.915Z,22.30
2023-05-23T08:18:33.829Z,22.30
2023-05-23T08:19:36.517Z,22.30
2023-05-23T08:20:39.227Z,22.30
2023-05-23T08:21:42.588Z,22.40
2023-05-23T08:22:47.469Z,22.40
2023-05-23T08:23:50.018Z,22.40
2023-05-23T08:24:52.436Z,22.40
2023-05-23T08:25:57.823Z,22.40
2023-05-23T08:27:00.981Z,22.30
2023-05-23T08:28:03.421Z,22.40
2023-05-23T08:29:21.607Z,22.40
2023-05-23T08:30:25.442Z,22.40
2023-05-23T08:31:32.221Z,22.40
2023-05-23T08:32:35.882Z,22.40
2023-05-23T08:33:38.490Z,22.40
2023-05-23T08:34:41.807Z,22.40
2023-05-23T08:35:44.240Z,22.40
2023-05-23T08:36:48.770Z,22.40
2023-05-23T08:37:58.142Z,22.40
2023-05-23T08:39:01.385Z,22.40
2023-05-23T08:40:13.785Z,22.40
2023-05-23T08:41:23.004Z,22.40
2023-05-23T08:42:29.096Z,22.30
2023-05-23T08:43:32.436Z,22.30
2023-05-23T08:44:35.008Z,22.30
2023-05-23T08:45:39.761Z,22.30
2023-05-23T08:46:46.758Z,22.30
2023-05-23T08:48:01.410Z,22.30
2023-05-23T08:49:05.700Z,22.30
2023-05-23T08:50:12.144Z,22.30
2023-05-23T08:51:16.783Z,22.30
2023-05-23T08:52:25.162Z,22.30
2023-05-23T08:53:32.236Z,22.30
2023-05-23T08:54:41.161Z,22.30
2023-05-23T08:55:44.261Z,22.30
2023-05-23T08:56:47.667Z,22.30
2023-05-23T08:57:50.742Z,22.30
2023-05-23T08:59:08.468Z,22.30
2023-05-23T09:00:14.917Z,22.20
2023-05-23T09:01:20.400Z,22.20
2023-05-23T09:02:26.575Z,22.20
2023-05-23T09:03:37.692Z,22.20
2023-05-23T09:04:49.740Z,22.20
2023-05-23T09:05:57.901Z,22.20
2023-05-23T09:07:02.430Z,22.20
2023-05-23T09:08:05.865Z,22.20
2023-05-23T09:09:09.429Z,22.20
2023-05-23T09:10:12.934Z,22.20
2023-05-23T09:11:16.213Z,22.20
2023-05-23T09:12:22.534Z,22.20
2023-05-23T09:13:25.970Z,22.20
2023-05-23T09:14:32.014Z,22.30
2023-05-23T09:16:01.343Z,22.20
2023-05-23T09:17:07.811Z,22.20
2023-05-23T09:18:11.580Z,22.20
2023-05-23T09:19:14.875Z,22.20
2023-05-23T09:20:24.970Z,22.30
2023-05-23T09:21:32.999Z,22.30
2023-05-23T09:22:49.478Z,22.30
2023-05-23T09:23:54.584Z,22.30
2023-05-23T09:24:57.876Z,22.30
2023-05-23T09:26:05.699Z,22.30
2023-05-23T09:27:09.227Z,22.30
2023-05-23T09:28:11.652Z,22.30
2023-05-23T09:29:14.765Z,22.30
2023-05-23T09:30:19.412Z,22.30
2023-05-23T09:31:26.867Z,22.30
2023-05-23T09:32:29.394Z,22.30
2023-05-23T09:33:50.742Z,22.30
2023-05-23T09:34:58.251Z,22.30
2023-05-23T09:36:01.543Z,22.30
2023-05-23T09:37:04.108Z,22.30
2023-05-23T09:38:08.334Z,22.30
2023-05-23T09:39:12.225Z,22.30
2023-05-23T09:40:16.354Z,22.30
2023-05-23T09:41:25.230Z,22.30
2023-05-23T09:42:33.099Z,22.40
2023-05-23T09:43:37.762Z,22.30
2023-05-23T09:44:43.914Z,22.40
2023-05-23T09:45:46.433Z,22.40
2023-05-23T09:46:53.775Z,22.30
2023-05-23T09:47:56.964Z,22.30
2023-05-23T09:49:00.267Z,22.30
2023-05-23T09:50:03.316Z,22.30
2023-05-23T09:51:07.536Z,22.30
2023-05-23T09:52:11.511Z,22.30
2023-05-23T09:53:13.940Z,22.30
2023-05-23T09:54:16.464Z,22.30
2023-05-23T09:55:19.438Z,22.30
2023-05-23T09:56:23.557Z,22.30
2023-05-23T09:57:26.303Z,22.30
2023-05-23T09:58:30.256Z,22.30
2023-05-23T09:59:38.533Z,22.30
2023-05-23T10:00:41.740Z,22.30
2023-05-23T10:01:46.420Z,22.30
2023-05-23T10:03:14.494Z,22.30
2023-05-23T10:04:23.599Z,22.30
2023-05-23T10:05:45.778Z,22.30
2023-05-23T10:06:53.939Z,22.30
2023-05-23T10:07:59.840Z,22.30
2023-05-23T10:09:04.805Z,22.40
2023-05-23T10:10:10.662Z,22.40
2023-05-23T10:11:16.692Z,22.40
2023-05-23T10:12:42.598Z,22.40
2023-05-23T10:13:47.116Z,22.40
2023-05-23T10:14:55.130Z,22.40
2023-05-23T10:16:27.083Z,22.40
2023-05-23T10:18:02.791Z,22.50
2023-05-23T10:19:19.680Z,22.50
2023-05-23T10:20:28.323Z,22.50
2023-05-23T10:21:36.963Z,22.40
2023-05-23T10:22:41.062Z,22.40
2023-05-23T10:23:44.573Z,22.40
2023-05-23T10:24:48.556Z,22.40
2023-05-23T10:25:51.830Z,22.50
2023-05-23T10:26:55.653Z,22.50
2023-05-23T10:28:01.560Z,22.50
2023-05-23T10:29:07.419Z,22.40
2023-05-23T10:30:11.017Z,22.30
2023-05-23T10:31:13.461Z,22.30
2023-05-23T10:32:17.449Z,22.30
2023-05-23T10:33:20.376Z,22.30
2023-05-23T10:34:29.955Z,22.30
2023-05-23T10:35:59.675Z,22.20
2023-05-23T10:37:05.170Z,22.20
2023-05-23T10:38:21.829Z,22.10
2023-05-23T10:39:52.001Z,22.10
2023-05-23T10:41:13.656Z,22.20
2023-05-23T10:42:24.722Z,22.20
2023-05-23T10:43:40.362Z,22.20
2023-05-23T10:44:43.112Z,22.20
2023-05-23T10:45:47.082Z,22.30
2023-05-23T10:46:58.868Z,22.30
2023-05-23T10:48:01.572Z,22.30
2023-05-23T10:49:08.803Z,22.30
2023-05-23T10:50:17.090Z,22.30
2023-05-23T10:51:20.458Z,22.40
2023-05-23T10:52:27.054Z,22.40
2023-05-23T10:53:30.274Z,22.40
2023-05-23T10:54:37.241Z,22.40
2023-05-23T10:55:39.649Z,22.40
2023-05-23T10:56:42.274Z,22.30
2023-05-23T10:57:46.571Z,22.30
2023-05-23T10:58:56.001Z,22.30
2023-05-23T10:59:59.167Z,22.30
2023-05-23T11:01:06.525Z,22.30
2023-05-23T11:02:17.070Z,22.30
2023-05-23T11:03:19.862Z,22.30
2023-05-23T11:04:27.580Z,22.40
2023-05-23T11:05:32.020Z,22.40
2023-05-23T11:06:43.446Z,22.40
2023-05-23T11:07:46.095Z,22.30
2023-05-23T11:08:49.241Z,22.40
2023-05-23T11:10:24.062Z,22.40
2023-05-23T11:11:52.466Z,22.40
2023-05-23T11:13:06.746Z,22.50
2023-05-23T11:14:09.785Z,22.50
2023-05-23T11:15:17.947Z,22.50
2023-05-23T11:16:27.509Z,22.50
2023-05-23T11:17:33.429Z,22.50
2023-05-23T11:18:38.029Z,22.50
2023-05-23T11:19:55.551Z,22.50
2023-05-23T11:20:59.896Z,22.50
2023-05-23T11:22:03.115Z,22.50
2023-05-23T11:23:08.571Z,22.50
2023-05-23T11:24:11.170Z,22.50
2023-05-23T11:25:14.016Z,22.50
2023-05-23T11:26:32.575Z,22.40
2023-05-23T11:27:38.679Z,22.40
2023-05-23T11:28:57.520Z,22.40
2023-05-23T11:30:11.020Z,22.40
2023-05-23T11:31:13.778Z,22.40
2023-05-23T11:32:17.924Z,22.40
2023-05-23T11:33:21.066Z,22.40
2023-05-23T11:34:26.545Z,22.40
2023-05-23T11:35:30.858Z,22.40
2023-05-23T11:36:33.796Z,22.30
2023-05-23T11:37:38.215Z,22.30
2023-05-23T11:38:40.940Z,22.30
2023-05-23T11:39:43.340Z,22.30
2023-05-23T11:40:48.917Z,22.40
2023-05-23T11:42:02.616Z,22.40
2023-05-23T11:43:17.582Z,22.40
2023-05-23T11:44:21.036Z,22.40
2023-05-23T11:45:24.145Z,22.40
2023-05-23T11:46:26.981Z,22.30
2023-05-23T11:47:29.659Z,22.30
2023-05-23T11:48:32.187Z,22.30
2023-05-23T11:49:38.000Z,22.30
2023-05-23T11:50:49.029Z,22.30
2023-05-23T11:51:51.738Z,22.40
2023-05-23T11:52:55.561Z,22.40
2023-05-23T11:54:01.472Z,22.30
2023-05-23T11:55:06.801Z,22.30
2023-05-23T11:56:09.400Z,22.40
2023-05-23T11:57:14.032Z,22.40
2023-05-23T11:58:16.833Z,22.40
2023-05-23T11:59:19.712Z,22.30
2023-05-23T12:00:22.405Z,22.30
2023-05-23T12:01:31.307Z,22.40
2023-05-23T12:02:39.728Z,22.40
2023-05-23T12:03:49.425Z,22.40
2023-05-23T12:04:52.758Z,22.30
2023-05-23T12:05:56.040Z,22.30
2023-05-23T12:06:58.501Z,22.30
2023-05-23T12:08:01.195Z,22.30
2023-05-23T12:09:03.797Z,22.30
2023-05-23T12:10:06.888Z,22.30
2023-05-23T12:11:09.457Z,22.30
2023-05-23T12:12:13.417Z,22.30
2023-05-23T12:13:16.212Z,22.40
2023-05-23T12:14:18.807Z,22.40
2023-05-23T12:15:29.382Z,22.40
2023-05-23T12:16:32.730Z,22.40
2023-05-23T12:17:37.540Z,22.50
2023-05-23T12:18:40.050Z,22.50
2023-05-23T12:19:47.022Z,22.50
2023-05-23T12:20:51.546Z,22.40
2023-05-23T12:21:53.999Z,22.40
2023-05-23T12:22:57.462Z,22.50
2023-05-23T12:23:59.939Z,22.40
2023-05-23T12:25:02.658Z,22.40
2023-05-23T12:26:12.596Z,22.40
2023-05-23T12:27:18.447Z,22.40
2023-05-23T12:28:21.532Z,22.40
2023-05-23T12:29:50.161Z,22.40
2023-05-23T12:30:52.643Z,22.40
2023-05-23T12:31:55.265Z,22.40
2023-05-23T12:32:57.703Z,22.40
2023-05-23T12:34:00.679Z,22.40
2023-05-23T12:35:04.810Z,22.30
2023-05-23T12:36:07.576Z,22.40
2023-05-23T12:37:19.428Z,22.40
2023-05-23T12:38:23.561Z,22.40
2023-05-23T12:39:30.299Z,22.30
2023-05-23T12:40:33.017Z,22.30
2023-05-23T12:41:36.300Z,22.30
2023-05-23T12:42:56.156Z,22.30
2023-05-23T12:43:58.708Z,22.40
2023-05-23T12:45:01.403Z,22.40
2023-05-23T12:46:03.986Z,22.40
2023-05-23T12:47:06.641Z,22.40
2023-05-23T12:48:09.162Z,22.40
2023-05-23T12:49:11.644Z,22.40
2023-05-23T12:50:14.187Z,22.40
2023-05-23T12:51:17.185Z,22.30
2023-05-23T12:52:19.598Z,22.40
2023-05-23T12:53:24.965Z,22.40
2023-05-23T12:54:28.125Z,22.40
2023-05-23T12:55:30.836Z,22.40
2023-05-23T12:56:33.528Z,22.30
2023-05-23T12:57:36.427Z,22.30
2023-05-23T12:58:38.850Z,22.40
2023-05-23T12:59:41.360Z,22.40
2023-05-23T13:00:43.939Z,22.40
2023-05-23T13:01:47.197Z,22.40
2023-05-23T13:02:50.722Z,22.50
2023-05-23T13:03:53.417Z,22.40
2023-05-23T13:04:56.226Z,22.50
2023-05-23T13:05:59.484Z,22.50
2023-05-23T13:07:02.090Z,22.50
2023-05-23T13:08:04.631Z,22.50
2023-05-23T13:09:07.115Z,22.50
2023-05-23T13:10:10.132Z,22.50
2023-05-23T13:11:13.640Z,22.50
2023-05-23T13:12:16.760Z,22.60
2023-05-23T13:13:19.761Z,22.50
2023-05-23T13:14:22.342Z,22.60
2023-05-23T13:15:25.091Z,22.60
2023-05-23T13:16:27.614Z,22.60
2023-05-23T13:17:30.718Z,22.60
2023-05-23T13:18:33.589Z,22.60
2023-05-23T13:19:37.057Z,22.60
2023-05-23T13:20:39.551Z,22.60
2023-05-23T13:21:42.019Z,22.60
2023-05-23T13:22:44.649Z,22.60
2023-05-23T13:23:47.135Z,22.60
2023-05-23T13:24:49.621Z,22.60
2023-05-23T13:25:53.308Z,22.60
2023-05-23T13:26:56.041Z,22.60
2023-05-23T13:27:58.914Z,22.50
2023-05-23T13:29:01.397Z,22.50
2023-05-23T13:30:04.311Z,22.50
2023-05-23T13:31:07.118Z,22.50
2023-05-23T13:32:09.627Z,22.60
2023-05-23T13:33:12.123Z,22.60
2023-05-23T13:34:14.703Z,22.50
2023-05-23T13:35:17.160Z,22.50
2023-05-23T13:36:20.797Z,22.50
2023-05-23T13:37:23.501Z,22.50
2023-05-23T13:38:27.669Z,22.50
2023-05-23T13:39:30.146Z,22.50
2023-05-23T13:40:32.942Z,22.50
2023-05-23T13:41:35.489Z,22.50
2023-05-23T13:42:37.899Z,22.60
2023-05-23T13:43:40.517Z,22.50
2023-05-23T13:44:42.920Z,22.40
2023-05-23T13:45:45.379Z,22.50
2023-05-23T13:46:48.624Z,22.50
2023-05-23T13:47:51.387Z,22.50
2023-05-23T13:48:54.767Z,22.60
2023-05-23T13:49:57.476Z,22.60
2023-05-23T13:51:01.629Z,22.60
2023-05-23T13:52:04.219Z,22.60
2023-05-23T13:53:14.398Z,22.60
2023-05-23T13:54:16.902Z,22.70
2023-05-23T13:55:19.835Z,22.70
2023-05-23T13:56:24.358Z,22.60
2023-05-23T13:57:27.020Z,22.60
2023-05-23T13:58:31.258Z,22.60
2023-05-23T13:59:35.113Z,22.60
2023-05-23T14:00:37.742Z,22.60
2023-05-23T14:01:40.865Z,22.60
2023-05-23T14:02:43.756Z,22.60